»·PEaware :: DAL2841 KSLC-KPDX

DAL2841 :: KSLC-KPDX

FLIGHT INFORMATION

Flight Status: Arrived
Operator:
Delta Air Lines
More flights by this operator :: More flights under this callsign
Pilot: Anonymous 15639 (15639)
Aircraft: BOEING 737-800
(B738)
More flights by this aircraft type
Origin: KSLC Salt Lake City Intl
United States
Destination: KPDX Portland Intl
United States
More flights between these airports :: More routes between these airports
Route: TWF4 TWF J15 BOI J163 BKE JOTBA HHOOD4
File this flight plan on PilotEdge
Remarks:
Altitude:
(Current/Filed)
38,000ft
Speed:
(Current/Filed)
452kts
Departed: 07-May-18 08:19 AM
Arrived: 07-May-18 09:54 AM
Distance/Time
Traveled:
546nm/1:35
Distance/Time
To Go:
Arrived

Flight Plot

Page will automatically refresh every two minutes.

Flight plan parsing failed; only flown route is shown


Map Options




Map Legend


Flown Route
Filed Route
Departure Airport
Arrival Airport
Navaid (VOR, NDB)
Fix

Horizontal Profiles

Position Reports

Time Latitude Longitude Heading Altitude Ground
Speed
07-May-18 07:51 40.789254 -111.981163 0 4235ft 0kts
07-May-18 07:52 40.789254 -111.981163 195 4235ft 0kts
07-May-18 07:53 40.789254 -111.981163 195 4235ft 0kts
07-May-18 07:53 40.789254 -111.981163 195 4235ft 0kts
07-May-18 07:55 40.789254 -111.981163 195 4235ft 0kts
07-May-18 07:56 40.789254 -111.981163 195 4235ft 0kts
07-May-18 07:57 40.789254 -111.981163 195 4235ft 0kts
07-May-18 07:58 40.789254 -111.981163 195 4235ft 0kts
07-May-18 07:59 40.789254 -111.981163 195 4235ft 0kts
07-May-18 08:00 40.789254 -111.981163 195 4235ft 0kts
07-May-18 08:01 40.789254 -111.981163 195 4235ft 0kts
07-May-18 08:02 40.789254 -111.981163 195 4235ft 0kts
07-May-18 08:03 40.789254 -111.981163 195 4235ft 0kts
07-May-18 08:04 40.789254 -111.981163 195 4235ft 0kts
07-May-18 08:05 40.789254 -111.981163 195 4235ft 0kts
07-May-18 08:06 40.789254 -111.981163 195 4235ft 0kts
07-May-18 08:07 40.789324 -111.981138 194 4235ft 2kts
07-May-18 08:08 40.789839 -111.981186 133 4235ft 2kts
07-May-18 08:09 40.789937 -111.981611 84 4235ft 0kts
07-May-18 08:10 40.789937 -111.981611 84 4235ft 0kts
07-May-18 08:11 40.789950 -111.980665 107 4235ft 6kts
07-May-18 08:12 40.789718 -111.977995 85 4235ft 7kts
07-May-18 08:13 40.787804 -111.976833 175 4235ft 10kts
07-May-18 08:14 40.784927 -111.976498 174 4235ft 10kts
07-May-18 08:15 40.781733 -111.976116 174 4235ft 12kts
07-May-18 08:16 40.778476 -111.975264 169 4235ft 11kts
07-May-18 08:17 40.775486 -111.974903 174 4235ft 10kts
07-May-18 08:18 40.775124 -111.973301 22 4235ft 8kts
07-May-18 08:19 40.802250 -111.976300 354 4587ft 190kts
07-May-18 08:20 40.840647 -112.020770 290 6820ft 249kts
07-May-18 08:21 40.865205 -112.109350 289 10022ft 270kts
07-May-18 08:22 40.890331 -112.201069 289 10510ft 273kts
07-May-18 08:23 40.939090 -112.280844 321 13560ft 305kts
07-May-18 08:24 41.006016 -112.351671 316 16819ft 314kts
07-May-18 08:25 41.072458 -112.427821 315 19851ft 321kts
07-May-18 08:26 41.147071 -112.493631 323 22541ft 332kts
07-May-18 08:27 41.222552 -112.564812 318 23382ft 335kts
07-May-18 08:28 41.297990 -112.648771 309 23908ft 364kts
07-May-18 08:29 41.371283 -112.755796 308 24348ft 399kts
07-May-18 08:30 41.445507 -112.866799 307 25662ft 407kts
07-May-18 08:31 41.521729 -112.983360 306 28156ft 409kts
07-May-18 08:32 41.592231 -113.091098 305 31590ft 378kts
07-May-18 08:33 41.660120 -113.195608 305 33815ft 369kts
07-May-18 08:34 41.726743 -113.298556 305 35600ft 365kts
07-May-18 08:35 41.792509 -113.400549 305 37037ft 363kts
07-May-18 08:36 41.858314 -113.502957 305 38180ft 363kts
07-May-18 08:37 41.926211 -113.609192 305 38214ft 390kts
07-May-18 08:38 41.998616 -113.722921 305 38214ft 406kts
07-May-18 08:39 42.071760 -113.838135 305 38212ft 406kts
07-May-18 08:40 42.144847 -113.953678 305 38211ft 406kts
07-May-18 08:41 42.217745 -114.069329 305 38216ft 407kts
07-May-18 08:42 42.290859 -114.185745 305 38227ft 407kts
07-May-18 08:42 42.351590 -114.282777 305 38235ft 407kts
07-May-18 08:43 42.424187 -114.399145 305 38233ft 406kts
07-May-18 08:44 42.497159 -114.515799 306 38232ft 407kts
07-May-18 08:45 42.571303 -114.631190 305 38230ft 407kts
07-May-18 08:46 42.644361 -114.747305 305 38237ft 406kts
07-May-18 08:47 42.717253 -114.863875 305 38232ft 406kts
07-May-18 08:48 42.790328 -114.980691 305 38228ft 406kts
07-May-18 08:49 42.863625 -115.097720 305 38223ft 408kts
07-May-18 08:50 42.937151 -115.214928 306 38217ft 407kts
07-May-18 08:51 43.010729 -115.332055 306 38215ft 405kts
07-May-18 08:52 43.083775 -115.448150 306 38213ft 404kts
07-May-18 08:53 43.156028 -115.562795 306 38214ft 404kts
07-May-18 08:54 43.229325 -115.678987 306 38223ft 404kts
07-May-18 08:55 43.302689 -115.795281 306 38222ft 404kts
07-May-18 08:56 43.376214 -115.911562 306 38221ft 404kts
07-May-18 08:57 43.450083 -116.028196 306 38226ft 404kts
07-May-18 08:58 43.523800 -116.144429 307 38226ft 404kts
07-May-18 08:59 43.603739 -116.254104 313 38226ft 408kts
07-May-18 09:00 43.686776 -116.356789 313 38225ft 408kts
07-May-18 09:01 43.770526 -116.462044 313 38225ft 408kts
07-May-18 09:02 43.854323 -116.567784 313 38224ft 408kts
07-May-18 09:03 43.937979 -116.673350 312 38232ft 408kts
07-May-18 09:05 44.021019 -116.778170 312 38232ft 408kts
07-May-18 09:06 44.104741 -116.883640 312 38229ft 408kts
07-May-18 09:07 44.188225 -116.988676 313 38227ft 408kts
07-May-18 09:08 44.272146 -117.094150 313 38228ft 408kts
07-May-18 09:09 44.356565 -117.200131 313 38226ft 408kts
07-May-18 09:10 44.441043 -117.306076 313 38235ft 409kts
07-May-18 09:11 44.525674 -117.412127 313 38241ft 409kts
07-May-18 09:12 44.610332 -117.518048 314 38242ft 409kts
07-May-18 09:13 44.695002 -117.623960 314 38239ft 409kts
07-May-18 09:14 44.779240 -117.729373 313 38249ft 409kts
07-May-18 09:15 44.846241 -117.847664 283 38254ft 397kts
07-May-18 09:16 44.865373 -118.000350 278 38246ft 396kts
07-May-18 09:17 44.882274 -118.153126 278 38245ft 396kts
07-May-18 09:18 44.899395 -118.306632 278 38245ft 396kts
07-May-18 09:19 44.916648 -118.459568 278 38247ft 396kts
07-May-18 09:20 44.934124 -118.612688 279 38249ft 396kts
07-May-18 09:21 44.951408 -118.763112 278 38276ft 396kts
07-May-18 09:22 44.969004 -118.914169 278 38281ft 396kts
07-May-18 09:23 44.987075 -119.067346 279 38271ft 397kts
07-May-18 09:24 45.005424 -119.221183 279 38257ft 397kts
07-May-18 09:25 45.023931 -119.374647 279 38246ft 398kts
07-May-18 09:26 45.042695 -119.528603 279 38232ft 398kts
07-May-18 09:27 45.061643 -119.682545 279 38069ft 400kts
07-May-18 09:28 45.080318 -119.833472 279 37101ft 397kts
07-May-18 09:29 45.099432 -119.985833 279 36125ft 398kts
07-May-18 09:30 45.118729 -120.138008 279 34772ft 404kts
07-May-18 09:31 45.138418 -120.291849 280 32239ft 408kts
07-May-18 09:32 45.157811 -120.441944 281 29798ft 392kts
07-May-18 09:33 45.191489 -120.583699 298 27471ft 384kts
07-May-18 09:34 45.241201 -120.712517 297 25236ft 367kts
07-May-18 09:35 45.288353 -120.835312 298 23169ft 363kts
07-May-18 09:36 45.334992 -120.957281 298 21145ft 354kts
07-May-18 09:37 45.381301 -121.078814 298 19168ft 347kts
07-May-18 09:38 45.426909 -121.198798 297 17023ft 344kts
07-May-18 09:39 45.454359 -121.325150 285 15141ft 327kts
07-May-18 09:40 45.478148 -121.448020 285 13244ft 318kts
07-May-18 09:41 45.501663 -121.568201 286 11346ft 312kts
07-May-18 09:42 45.523942 -121.682365 285 10360ft 280kts
07-May-18 09:43 45.534524 -121.783306 272 9690ft 272kts
07-May-18 09:44 45.537335 -121.887948 273 8465ft 268kts
07-May-18 09:45 45.540827 -121.985157 274 7339ft 258kts
07-May-18 09:46 45.529193 -122.074645 235 6450ft 230kts
07-May-18 09:47 45.491568 -122.147570 234 5860ft 228kts
07-May-18 09:48 45.477063 -122.230278 277 5074ft 221kts
07-May-18 09:49 45.485405 -122.317034 293 3770ft 217kts
07-May-18 09:50 45.513824 -122.388658 299 2933ft 199kts
07-May-18 09:51 45.538341 -122.450916 299 2042ft 168kts
07-May-18 09:52 45.559332 -122.505578 300 1013ft 147kts
07-May-18 09:53 45.578617 -122.553988 300 293ft 140kts
07-May-18 09:54 45.593759 -122.592939 302 37ft 34kts
07-May-18 09:55 45.593539 -122.596552 230 37ft 6kts
07-May-18 09:56 45.591366 -122.598712 158 37ft 8kts
07-May-18 09:57 45.590346 -122.598295 210 37ft 3kts
07-May-18 09:58 45.590293 -122.598340 210 37ft 0kts

Navigation Log

Ident Type
Flight plan parsing failed, navigation log unavailable